sensor_id;sensor_type;location;lat;lon;timestamp;P1;durP1;ratioP1;P2;durP2;ratioP2
67930;SDS011;63902;52.000;5.954;2022-12-18T00:00:41;21.08;;;10.90;;
67930;SDS011;63902;52.000;5.954;2022-12-18T00:01:42;21.83;;;11.45;;
67930;SDS011;63902;52.000;5.954;2022-12-18T00:02:42;14.63;;;9.65;;
67930;SDS011;63902;52.000;5.954;2022-12-18T00:03:43;19.00;;;10.45;;
67930;SDS011;63902;52.000;5.954;2022-12-18T00:04:43;12.48;;;8.93;;
67930;SDS011;63902;52.000;5.954;2022-12-18T00:05:47;15.02;;;10.02;;
67930;SDS011;63902;52.000;5.954;2022-12-18T00:06:48;17.23;;;11.35;;
67930;SDS011;63902;52.000;5.954;2022-12-18T00:07:48;18.13;;;10.27;;
67930;SDS011;63902;52.000;5.954;2022-12-18T00:08:49;16.08;;;10.15;;
67930;SDS011;63902;52.000;5.954;2022-12-18T00:09:49;18.15;;;9.63;;
67930;SDS011;63902;52.000;5.954;2022-12-18T00:10:51;16.85;;;10.15;;
67930;SDS011;63902;52.000;5.954;2022-12-18T00:11:51;16.63;;;10.65;;
67930;SDS011;63902;52.000;5.954;2022-12-18T00:12:52;17.42;;;9.90;;
67930;SDS011;63902;52.000;5.954;2022-12-18T00:13:53;16.58;;;9.57;;
67930;SDS011;63902;52.000;5.954;2022-12-18T00:14:55;19.02;;;9.60;;
67930;SDS011;63902;52.000;5.954;2022-12-18T00:15:55;15.48;;;9.20;;
67930;SDS011;63902;52.000;5.954;2022-12-18T00:17:01;19.23;;;10.32;;
67930;SDS011;63902;52.000;5.954;2022-12-18T00:18:01;14.05;;;9.40;;
67930;SDS011;63902;52.000;5.954;2022-12-18T00:19:02;14.82;;;9.85;;
67930;SDS011;63902;52.000;5.954;2022-12-18T00:20:04;14.00;;;9.75;;
67930;SDS011;63902;52.000;5.954;2022-12-18T00:21:06;22.17;;;10.77;;
67930;SDS011;63902;52.000;5.954;2022-12-18T00:22:08;14.45;;;9.07;;
67930;SDS011;63902;52.000;5.954;2022-12-18T00:23:09;14.70;;;9.98;;
67930;SDS011;63902;52.000;5.954;2022-12-18T00:24:09;19.67;;;10.45;;
67930;SDS011;63902;52.000;5.954;2022-12-18T00:25:11;14.60;;;9.48;;
67930;SDS011;63902;52.000;5.954;2022-12-18T00:26:13;13.93;;;10.40;;
67930;SDS011;63902;52.000;5.954;2022-12-18T00:27:15;13.25;;;8.90;;
67930;SDS011;63902;52.000;5.954;2022-12-18T00:28:16;12.40;;;9.02;;
67930;SDS011;63902;52.000;5.954;2022-12-18T00:29:16;14.68;;;9.98;;
67930;SDS011;63902;52.000;5.954;2022-12-18T00:30:18;17.33;;;10.48;;
67930;SDS011;63902;52.000;5.954;2022-12-18T00:31:19;15.35;;;10.23;;
67930;SDS011;63902;52.000;5.954;2022-12-18T00:32:21;18.65;;;9.73;;
67930;SDS011;63902;52.000;5.954;2022-12-18T00:33:22;15.35;;;9.25;;
67930;SDS011;63902;52.000;5.954;2022-12-18T00:34:22;18.80;;;9.90;;
67930;SDS011;63902;52.000;5.954;2022-12-18T00:35:23;16.85;;;9.52;;
67930;SDS011;63902;52.000;5.954;2022-12-18T00:36:24;15.13;;;9.93;;
67930;SDS011;63902;52.000;5.954;2022-12-18T00:37:26;13.98;;;9.75;;
67930;SDS011;63902;52.000;5.954;2022-12-18T00:38:26;16.80;;;9.02;;
67930;SDS011;63902;52.000;5.954;2022-12-18T00:39:27;21.20;;;10.75;;
67930;SDS011;63902;52.000;5.954;2022-12-18T00:40:27;13.55;;;9.13;;
67930;SDS011;63902;52.000;5.954;2022-12-18T00:41:29;17.33;;;10.25;;
67930;SDS011;63902;52.000;5.954;2022-12-18T00:42:30;15.02;;;10.05;;
67930;SDS011;63902;52.000;5.954;2022-12-18T00:43:33;14.50;;;10.90;;
67930;SDS011;63902;52.000;5.954;2022-12-18T00:44:34;12.75;;;8.82;;
67930;SDS011;63902;52.000;5.954;2022-12-18T00:45:35;17.35;;;9.93;;
67930;SDS011;63902;52.000;5.954;2022-12-18T00:46:35;14.63;;;9.90;;
67930;SDS011;63902;52.000;5.954;2022-12-18T00:47:36;21.40;;;11.68;;
67930;SDS011;63902;52.000;5.954;2022-12-18T00:48:36;16.77;;;9.65;;
67930;SDS011;63902;52.000;5.954;2022-12-18T00:49:37;16.30;;;9.77;;
67930;SDS011;63902;52.000;5.954;2022-12-18T00:50:37;14.18;;;8.80;;
67930;SDS011;63902;52.000;5.954;2022-12-18T00:51:38;12.90;;;8.93;;
67930;SDS011;63902;52.000;5.954;2022-12-18T00:52:38;12.95;;;9.45;;
67930;SDS011;63902;52.000;5.954;2022-12-18T00:53:38;15.15;;;10.10;;
67930;SDS011;63902;52.000;5.954;2022-12-18T00:54:39;12.32;;;8.82;;
67930;SDS011;63902;52.000;5.954;2022-12-18T00:55:39;14.07;;;9.43;;
67930;SDS011;63902;52.000;5.954;2022-12-18T00:56:42;14.02;;;9.80;;
67930;SDS011;63902;52.000;5.954;2022-12-18T00:57:42;13.75;;;8.95;;
67930;SDS011;63902;52.000;5.954;2022-12-18T00:58:43;14.10;;;9.02;;
67930;SDS011;63902;52.000;5.954;2022-12-18T00:59:44;13.68;;;9.27;;
67930;SDS011;63902;52.000;5.954;2022-12-18T01:00:44;16.92;;;10.20;;
67930;SDS011;63902;52.000;5.954;2022-12-18T01:01:45;17.27;;;9.38;;
67930;SDS011;63902;52.000;5.954;2022-12-18T01:02:46;15.65;;;9.45;;
67930;SDS011;63902;52.000;5.954;2022-12-18T01:03:46;14.43;;;9.57;;
67930;SDS011;63902;52.000;5.954;2022-12-18T01:04:47;16.27;;;10.13;;
67930;SDS011;63902;52.000;5.954;2022-12-18T01:05:47;11.43;;;8.60;;
67930;SDS011;63902;52.000;5.954;2022-12-18T01:06:48;11.82;;;8.18;;
67930;SDS011;63902;52.000;5.954;2022-12-18T01:07:48;14.63;;;9.18;;
67930;SDS011;63902;52.000;5.954;2022-12-18T01:08:49;16.55;;;10.27;;
67930;SDS011;63902;52.000;5.954;2022-12-18T01:09:49;12.50;;;9.00;;
67930;SDS011;63902;52.000;5.954;2022-12-18T01:10:50;13.10;;;9.30;;
67930;SDS011;63902;52.000;5.954;2022-12-18T01:11:52;15.75;;;8.75;;
67930;SDS011;63902;52.000;5.954;2022-12-18T01:12:52;14.85;;;9.18;;
67930;SDS011;63902;52.000;5.954;2022-12-18T01:13:53;12.75;;;9.27;;
67930;SDS011;63902;52.000;5.954;2022-12-18T01:14:54;13.05;;;9.65;;
67930;SDS011;63902;52.000;5.954;2022-12-18T01:15:54;11.98;;;8.70;;
67930;SDS011;63902;52.000;5.954;2022-12-18T01:16:55;13.70;;;9.23;;
67930;SDS011;63902;52.000;5.954;2022-12-18T01:17:55;12.63;;;8.45;;
67930;SDS011;63902;52.000;5.954;2022-12-18T01:18:55;16.80;;;9.38;;
67930;SDS011;63902;52.000;5.954;2022-12-18T01:19:56;13.25;;;8.70;;
67930;SDS011;63902;52.000;5.954;2022-12-18T01:20:56;13.43;;;8.85;;
67930;SDS011;63902;52.000;5.954;2022-12-18T01:21:57;11.60;;;8.30;;
67930;SDS011;63902;52.000;5.954;2022-12-18T01:22:58;12.05;;;8.75;;
67930;SDS011;63902;52.000;5.954;2022-12-18T01:23:58;15.07;;;9.43;;
67930;SDS011;63902;52.000;5.954;2022-12-18T01:24:59;12.50;;;7.72;;
67930;SDS011;63902;52.000;5.954;2022-12-18T01:26:03;19.38;;;9.13;;
67930;SDS011;63902;52.000;5.954;2022-12-18T01:27:06;12.50;;;9.23;;
67930;SDS011;63902;52.000;5.954;2022-12-18T01:28:06;14.18;;;8.15;;
67930;SDS011;63902;52.000;5.954;2022-12-18T01:29:07;13.18;;;9.00;;
67930;SDS011;63902;52.000;5.954;2022-12-18T01:30:07;13.25;;;9.13;;
67930;SDS011;63902;52.000;5.954;2022-12-18T01:31:09;17.05;;;10.00;;
67930;SDS011;63902;52.000;5.954;2022-12-18T01:32:12;14.73;;;9.35;;
67930;SDS011;63902;52.000;5.954;2022-12-18T01:33:12;11.75;;;7.93;;
67930;SDS011;63902;52.000;5.954;2022-12-18T01:34:12;14.70;;;9.82;;
67930;SDS011;63902;52.000;5.954;2022-12-18T01:35:13;14.45;;;8.85;;
67930;SDS011;63902;52.000;5.954;2022-12-18T01:36:14;15.43;;;9.63;;
67930;SDS011;63902;52.000;5.954;2022-12-18T01:37:16;13.48;;;9.40;;
67930;SDS011;63902;52.000;5.954;2022-12-18T01:38:16;13.55;;;8.38;;
67930;SDS011;63902;52.000;5.954;2022-12-18T01:39:16;14.52;;;9.27;;
67930;SDS011;63902;52.000;5.954;2022-12-18T01:40:18;12.82;;;8.20;;
67930;SDS011;63902;52.000;5.954;2022-12-18T01:41:22;16.45;;;9.43;;
67930;SDS011;63902;52.000;5.954;2022-12-18T01:42:25;12.75;;;8.20;;
67930;SDS011;63902;52.000;5.954;2022-12-18T01:43:40;13.77;;;8.48;;
67930;SDS011;63902;52.000;5.954;2022-12-18T01:44:51;13.20;;;8.55;;
67930;SDS011;63902;52.000;5.954;2022-12-18T01:45:58;11.35;;;7.38;;
67930;SDS011;63902;52.000;5.954;2022-12-18T01:46:59;9.25;;;7.22;;
67930;SDS011;63902;52.000;5.954;2022-12-18T01:48:00;14.00;;;8.82;;
67930;SDS011;63902;52.000;5.954;2022-12-18T01:49:03;15.02;;;8.30;;
67930;SDS011;63902;52.000;5.954;2022-12-18T01:50:04;11.75;;;8.02;;
67930;SDS011;63902;52.000;5.954;2022-12-18T01:51:08;14.85;;;8.52;;
67930;SDS011;63902;52.000;5.954;2022-12-18T01:52:10;13.13;;;9.05;;
67930;SDS011;63902;52.000;5.954;2022-12-18T01:53:11;12.68;;;9.18;;
67930;SDS011;63902;52.000;5.954;2022-12-18T01:54:15;15.77;;;7.85;;
67930;SDS011;63902;52.000;5.954;2022-12-18T01:55:16;16.65;;;10.15;;
67930;SDS011;63902;52.000;5.954;2022-12-18T01:56:19;14.90;;;10.15;;
67930;SDS011;63902;52.000;5.954;2022-12-18T01:57:21;12.93;;;8.85;;
67930;SDS011;63902;52.000;5.954;2022-12-18T01:58:27;13.10;;;8.32;;
67930;SDS011;63902;52.000;5.954;2022-12-18T01:59:32;10.25;;;7.43;;
67930;SDS011;63902;52.000;5.954;2022-12-18T02:00:34;12.38;;;8.43;;
67930;SDS011;63902;52.000;5.954;2022-12-18T02:01:35;12.93;;;8.32;;
67930;SDS011;63902;52.000;5.954;2022-12-18T02:02:37;11.85;;;8.40;;
67930;SDS011;63902;52.000;5.954;2022-12-18T02:03:40;12.93;;;8.82;;
67930;SDS011;63902;52.000;5.954;2022-12-18T02:04:41;14.23;;;8.75;;
67930;SDS011;63902;52.000;5.954;2022-12-18T02:05:43;11.45;;;7.90;;
67930;SDS011;63902;52.000;5.954;2022-12-18T02:06:46;14.05;;;7.60;;
67930;SDS011;63902;52.000;5.954;2022-12-18T02:07:53;12.73;;;8.65;;
67930;SDS011;63902;52.000;5.954;2022-12-18T02:09:06;16.00;;;9.27;;
67930;SDS011;63902;52.000;5.954;2022-12-18T02:10:11;17.73;;;8.85;;
67930;SDS011;63902;52.000;5.954;2022-12-18T02:11:17;12.95;;;8.68;;
67930;SDS011;63902;52.000;5.954;2022-12-18T02:12:24;12.75;;;7.78;;
67930;SDS011;63902;52.000;5.954;2022-12-18T02:13:38;12.57;;;7.63;;
67930;SDS011;63902;52.000;5.954;2022-12-18T02:14:48;14.55;;;8.10;;
67930;SDS011;63902;52.000;5.954;2022-12-18T02:15:56;14.52;;;9.02;;
67930;SDS011;63902;52.000;5.954;2022-12-18T02:17:03;12.98;;;8.13;;
67930;SDS011;63902;52.000;5.954;2022-12-18T02:18:10;11.70;;;8.07;;
67930;SDS011;63902;52.000;5.954;2022-12-18T02:19:17;11.18;;;7.68;;
67930;SDS011;63902;52.000;5.954;2022-12-18T02:20:32;12.23;;;7.07;;
67930;SDS011;63902;52.000;5.954;2022-12-18T02:21:36;13.80;;;7.93;;
67930;SDS011;63902;52.000;5.954;2022-12-18T02:22:48;12.98;;;7.82;;
67930;SDS011;63902;52.000;5.954;2022-12-18T02:23:56;10.55;;;6.70;;
67930;SDS011;63902;52.000;5.954;2022-12-18T02:25:07;13.65;;;8.65;;
67930;SDS011;63902;52.000;5.954;2022-12-18T02:26:20;12.07;;;7.25;;
67930;SDS011;63902;52.000;5.954;2022-12-18T02:27:26;11.02;;;7.35;;
67930;SDS011;63902;52.000;5.954;2022-12-18T02:28:31;15.05;;;8.43;;
67930;SDS011;63902;52.000;5.954;2022-12-18T02:29:37;11.38;;;7.72;;
67930;SDS011;63902;52.000;5.954;2022-12-18T02:30:41;12.10;;;7.53;;
67930;SDS011;63902;52.000;5.954;2022-12-18T02:31:45;13.02;;;8.13;;
67930;SDS011;63902;52.000;5.954;2022-12-18T02:32:50;16.65;;;8.05;;
67930;SDS011;63902;52.000;5.954;2022-12-18T02:33:53;12.02;;;8.73;;
67930;SDS011;63902;52.000;5.954;2022-12-18T02:34:56;11.52;;;8.07;;
67930;SDS011;63902;52.000;5.954;2022-12-18T02:35:59;13.25;;;8.57;;
67930;SDS011;63902;52.000;5.954;2022-12-18T02:37:02;11.70;;;7.45;;
67930;SDS011;63902;52.000;5.954;2022-12-18T02:38:05;10.52;;;7.90;;
67930;SDS011;63902;52.000;5.954;2022-12-18T02:39:07;11.85;;;7.90;;
67930;SDS011;63902;52.000;5.954;2022-12-18T02:40:11;11.00;;;7.55;;
67930;SDS011;63902;52.000;5.954;2022-12-18T02:41:13;13.38;;;7.25;;
67930;SDS011;63902;52.000;5.954;2022-12-18T02:42:17;9.57;;;6.43;;
67930;SDS011;63902;52.000;5.954;2022-12-18T02:43:19;12.68;;;8.15;;
67930;SDS011;63902;52.000;5.954;2022-12-18T02:44:19;10.55;;;7.45;;
67930;SDS011;63902;52.000;5.954;2022-12-18T02:45:20;12.27;;;8.00;;
67930;SDS011;63902;52.000;5.954;2022-12-18T02:46:25;10.77;;;7.35;;
67930;SDS011;63902;52.000;5.954;2022-12-18T02:47:29;10.73;;;7.15;;
67930;SDS011;63902;52.000;5.954;2022-12-18T02:48:33;12.65;;;7.63;;
67930;SDS011;63902;52.000;5.954;2022-12-18T02:49:36;11.10;;;6.93;;
67930;SDS011;63902;52.000;5.954;2022-12-18T02:50:45;8.57;;;6.90;;
67930;SDS011;63902;52.000;5.954;2022-12-18T02:51:52;10.93;;;7.88;;
67930;SDS011;63902;52.000;5.954;2022-12-18T02:52:58;9.90;;;7.85;;
67930;SDS011;63902;52.000;5.954;2022-12-18T02:54:07;9.93;;;7.00;;
67930;SDS011;63902;52.000;5.954;2022-12-18T02:55:13;9.63;;;6.80;;
67930;SDS011;63902;52.000;5.954;2022-12-18T02:56:23;11.77;;;6.88;;
67930;SDS011;63902;52.000;5.954;2022-12-18T02:57:33;8.73;;;6.88;;
67930;SDS011;63902;52.000;5.954;2022-12-18T02:58:38;8.90;;;6.68;;
67930;SDS011;63902;52.000;5.954;2022-12-18T02:59:49;17.15;;;7.93;;
67930;SDS011;63902;52.000;5.954;2022-12-18T03:00:58;11.77;;;6.57;;
67930;SDS011;63902;52.000;5.954;2022-12-18T03:02:04;12.63;;;6.15;;
67930;SDS011;63902;52.000;5.954;2022-12-18T03:03:16;10.40;;;6.68;;
67930;SDS011;63902;52.000;5.954;2022-12-18T03:04:25;10.40;;;7.00;;
67930;SDS011;63902;52.000;5.954;2022-12-18T03:05:30;9.68;;;6.38;;
67930;SDS011;63902;52.000;5.954;2022-12-18T03:06:33;8.23;;;6.93;;
67930;SDS011;63902;52.000;5.954;2022-12-18T03:07:40;9.77;;;7.70;;
67930;SDS011;63902;52.000;5.954;2022-12-18T03:08:46;10.75;;;6.40;;
67930;SDS011;63902;52.000;5.954;2022-12-18T03:09:49;10.07;;;6.82;;
67930;SDS011;63902;52.000;5.954;2022-12-18T03:10:54;10.90;;;7.90;;
67930;SDS011;63902;52.000;5.954;2022-12-18T03:12:10;15.10;;;7.32;;
67930;SDS011;63902;52.000;5.954;2022-12-18T03:13:17;10.63;;;7.15;;
67930;SDS011;63902;52.000;5.954;2022-12-18T03:14:23;8.10;;;5.97;;
67930;SDS011;63902;52.000;5.954;2022-12-18T03:15:27;10.38;;;6.68;;
67930;SDS011;63902;52.000;5.954;2022-12-18T03:16:30;10.10;;;6.57;;
67930;SDS011;63902;52.000;5.954;2022-12-18T03:17:32;9.70;;;6.68;;
67930;SDS011;63902;52.000;5.954;2022-12-18T03:18:34;11.13;;;6.53;;
67930;SDS011;63902;52.000;5.954;2022-12-18T03:19:38;8.30;;;6.47;;
67930;SDS011;63902;52.000;5.954;2022-12-18T03:20:41;10.13;;;6.45;;
67930;SDS011;63902;52.000;5.954;2022-12-18T03:21:45;12.80;;;7.47;;
67930;SDS011;63902;52.000;5.954;2022-12-18T03:22:50;11.07;;;6.95;;
67930;SDS011;63902;52.000;5.954;2022-12-18T03:23:55;10.88;;;7.38;;
67930;SDS011;63902;52.000;5.954;2022-12-18T03:24:57;8.15;;;5.97;;
67930;SDS011;63902;52.000;5.954;2022-12-18T03:26:01;11.82;;;6.75;;
67930;SDS011;63902;52.000;5.954;2022-12-18T03:27:06;10.85;;;5.82;;
67930;SDS011;63902;52.000;5.954;2022-12-18T03:28:12;10.73;;;6.57;;
67930;SDS011;63902;52.000;5.954;2022-12-18T03:29:16;9.30;;;6.47;;
67930;SDS011;63902;52.000;5.954;2022-12-18T03:30:19;10.00;;;6.43;;
67930;SDS011;63902;52.000;5.954;2022-12-18T03:31:21;8.38;;;5.72;;
67930;SDS011;63902;52.000;5.954;2022-12-18T03:32:24;9.85;;;6.28;;
67930;SDS011;63902;52.000;5.954;2022-12-18T03:33:27;11.23;;;6.97;;
67930;SDS011;63902;52.000;5.954;2022-12-18T03:34:32;8.57;;;6.43;;
67930;SDS011;63902;52.000;5.954;2022-12-18T03:35:37;9.50;;;6.13;;
67930;SDS011;63902;52.000;5.954;2022-12-18T03:36:39;8.45;;;5.30;;
67930;SDS011;63902;52.000;5.954;2022-12-18T03:37:40;9.15;;;5.53;;
67930;SDS011;63902;52.000;5.954;2022-12-18T03:38:40;9.70;;;6.65;;
67930;SDS011;63902;52.000;5.954;2022-12-18T03:39:41;9.70;;;5.80;;
67930;SDS011;63902;52.000;5.954;2022-12-18T03:40:44;8.25;;;6.07;;
67930;SDS011;63902;52.000;5.954;2022-12-18T03:41:51;8.43;;;5.18;;
67930;SDS011;63902;52.000;5.954;2022-12-18T03:42:59;8.60;;;6.03;;
67930;SDS011;63902;52.000;5.954;2022-12-18T03:44:06;9.45;;;6.07;;
67930;SDS011;63902;52.000;5.954;2022-12-18T03:45:16;8.48;;;6.38;;
67930;SDS011;63902;52.000;5.954;2022-12-18T03:46:24;7.95;;;6.18;;
67930;SDS011;63902;52.000;5.954;2022-12-18T03:47:29;8.25;;;5.50;;
67930;SDS011;63902;52.000;5.954;2022-12-18T03:48:37;7.90;;;5.90;;
67930;SDS011;63902;52.000;5.954;2022-12-18T03:49:45;8.70;;;5.05;;
67930;SDS011;63902;52.000;5.954;2022-12-18T03:50:51;10.40;;;6.15;;
67930;SDS011;63902;52.000;5.954;2022-12-18T03:51:57;6.85;;;5.43;;
67930;SDS011;63902;52.000;5.954;2022-12-18T03:53:03;9.63;;;5.30;;
67930;SDS011;63902;52.000;5.954;2022-12-18T03:54:14;9.23;;;5.82;;
67930;SDS011;63902;52.000;5.954;2022-12-18T03:55:16;9.95;;;5.97;;
67930;SDS011;63902;52.000;5.954;2022-12-18T03:56:19;7.35;;;5.45;;
67930;SDS011;63902;52.000;5.954;2022-12-18T03:57:26;7.95;;;5.60;;
67930;SDS011;63902;52.000;5.954;2022-12-18T03:58:30;8.82;;;6.00;;
67930;SDS011;63902;52.000;5.954;2022-12-18T03:59:34;6.22;;;5.20;;
67930;SDS011;63902;52.000;5.954;2022-12-18T04:00:37;12.25;;;6.65;;
67930;SDS011;63902;52.000;5.954;2022-12-18T04:01:39;8.35;;;6.47;;
67930;SDS011;63902;52.000;5.954;2022-12-18T04:02:43;9.43;;;5.78;;
67930;SDS011;63902;52.000;5.954;2022-12-18T04:03:48;9.00;;;5.63;;
67930;SDS011;63902;52.000;5.954;2022-12-18T04:04:50;7.40;;;5.50;;
67930;SDS011;63902;52.000;5.954;2022-12-18T04:05:54;9.10;;;6.22;;
67930;SDS011;63902;52.000;5.954;2022-12-18T04:06:55;6.63;;;5.32;;
67930;SDS011;63902;52.000;5.954;2022-12-18T04:07:57;5.68;;;4.78;;
67930;SDS011;63902;52.000;5.954;2022-12-18T04:08:58;8.43;;;5.13;;
67930;SDS011;63902;52.000;5.954;2022-12-18T04:10:00;8.95;;;6.50;;
67930;SDS011;63902;52.000;5.954;2022-12-18T04:11:02;10.60;;;5.38;;
67930;SDS011;63902;52.000;5.954;2022-12-18T04:12:02;7.75;;;5.97;;
67930;SDS011;63902;52.000;5.954;2022-12-18T04:13:03;7.47;;;5.53;;
67930;SDS011;63902;52.000;5.954;2022-12-18T04:14:04;6.82;;;5.30;;
67930;SDS011;63902;52.000;5.954;2022-12-18T04:15:05;8.95;;;6.05;;
67930;SDS011;63902;52.000;5.954;2022-12-18T04:16:07;9.10;;;5.80;;
67930;SDS011;63902;52.000;5.954;2022-12-18T04:17:08;10.80;;;5.68;;
67930;SDS011;63902;52.000;5.954;2022-12-18T04:18:08;8.40;;;5.18;;
67930;SDS011;63902;52.000;5.954;2022-12-18T04:19:09;7.45;;;5.60;;
67930;SDS011;63902;52.000;5.954;2022-12-18T04:20:09;7.95;;;5.32;;
67930;SDS011;63902;52.000;5.954;2022-12-18T04:21:10;7.95;;;5.75;;
67930;SDS011;63902;52.000;5.954;2022-12-18T04:22:11;7.60;;;5.32;;
67930;SDS011;63902;52.000;5.954;2022-12-18T04:23:11;8.93;;;5.45;;
67930;SDS011;63902;52.000;5.954;2022-12-18T04:24:12;9.30;;;5.65;;
67930;SDS011;63902;52.000;5.954;2022-12-18T04:25:12;7.47;;;5.20;;
67930;SDS011;63902;52.000;5.954;2022-12-18T04:26:13;8.55;;;5.30;;
67930;SDS011;63902;52.000;5.954;2022-12-18T04:27:13;8.77;;;5.00;;
67930;SDS011;63902;52.000;5.954;2022-12-18T04:28:14;8.80;;;5.85;;
67930;SDS011;63902;52.000;5.954;2022-12-18T04:29:15;8.48;;;5.28;;
67930;SDS011;63902;52.000;5.954;2022-12-18T04:30:15;11.77;;;5.38;;
67930;SDS011;63902;52.000;5.954;2022-12-18T04:31:17;9.77;;;5.03;;
67930;SDS011;63902;52.000;5.954;2022-12-18T04:32:18;5.82;;;4.40;;
67930;SDS011;63902;52.000;5.954;2022-12-18T04:33:18;10.10;;;5.97;;
67930;SDS011;63902;52.000;5.954;2022-12-18T04:34:19;5.68;;;4.57;;
67930;SDS011;63902;52.000;5.954;2022-12-18T04:35:19;7.10;;;5.35;;
67930;SDS011;63902;52.000;5.954;2022-12-18T04:36:20;8.73;;;5.72;;
67930;SDS011;63902;52.000;5.954;2022-12-18T04:37:20;9.75;;;5.38;;
67930;SDS011;63902;52.000;5.954;2022-12-18T04:38:21;7.25;;;5.10;;
67930;SDS011;63902;52.000;5.954;2022-12-18T04:39:21;5.80;;;4.93;;
67930;SDS011;63902;52.000;5.954;2022-12-18T04:40:22;7.20;;;4.97;;
67930;SDS011;63902;52.000;5.954;2022-12-18T04:41:22;6.80;;;4.97;;
67930;SDS011;63902;52.000;5.954;2022-12-18T04:42:23;10.52;;;5.25;;
67930;SDS011;63902;52.000;5.954;2022-12-18T04:43:23;6.57;;;5.13;;
67930;SDS011;63902;52.000;5.954;2022-12-18T04:44:24;6.95;;;4.95;;
67930;SDS011;63902;52.000;5.954;2022-12-18T04:45:24;8.68;;;5.10;;
67930;SDS011;63902;52.000;5.954;2022-12-18T04:46:26;11.43;;;4.18;;
67930;SDS011;63902;52.000;5.954;2022-12-18T04:47:27;7.40;;;5.60;;
67930;SDS011;63902;52.000;5.954;2022-12-18T04:48:27;8.13;;;5.57;;
67930;SDS011;63902;52.000;5.954;2022-12-18T04:49:28;6.95;;;4.97;;
67930;SDS011;63902;52.000;5.954;2022-12-18T04:50:28;5.43;;;4.63;;
67930;SDS011;63902;52.000;5.954;2022-12-18T04:51:29;7.20;;;4.47;;
67930;SDS011;63902;52.000;5.954;2022-12-18T04:52:29;9.25;;;5.03;;
67930;SDS011;63902;52.000;5.954;2022-12-18T04:53:30;5.97;;;4.75;;
67930;SDS011;63902;52.000;5.954;2022-12-18T04:54:31;6.57;;;4.70;;
67930;SDS011;63902;52.000;5.954;2022-12-18T04:55:31;6.95;;;5.35;;
67930;SDS011;63902;52.000;5.954;2022-12-18T04:56:32;5.65;;;3.95;;
67930;SDS011;63902;52.000;5.954;2022-12-18T04:57:32;6.50;;;5.18;;
67930;SDS011;63902;52.000;5.954;2022-12-18T04:58:33;5.78;;;4.43;;
67930;SDS011;63902;52.000;5.954;2022-12-18T04:59:33;6.82;;;4.65;;
67930;SDS011;63902;52.000;5.954;2022-12-18T05:00:34;7.38;;;4.85;;
67930;SDS011;63902;52.000;5.954;2022-12-18T05:01:40;6.90;;;4.93;;
67930;SDS011;63902;52.000;5.954;2022-12-18T05:02:40;10.13;;;5.65;;
67930;SDS011;63902;52.000;5.954;2022-12-18T05:03:42;8.35;;;4.65;;
67930;SDS011;63902;52.000;5.954;2022-12-18T05:04:44;7.03;;;4.63;;
67930;SDS011;63902;52.000;5.954;2022-12-18T05:05:45;7.60;;;4.45;;
67930;SDS011;63902;52.000;5.954;2022-12-18T05:06:48;4.93;;;4.40;;
67930;SDS011;63902;52.000;5.954;2022-12-18T05:07:49;7.57;;;5.35;;
67930;SDS011;63902;52.000;5.954;2022-12-18T05:08:50;6.70;;;4.57;;
67930;SDS011;63902;52.000;5.954;2022-12-18T05:09:50;5.05;;;4.43;;
67930;SDS011;63902;52.000;5.954;2022-12-18T05:10:57;8.55;;;4.78;;
67930;SDS011;63902;52.000;5.954;2022-12-18T05:11:58;8.88;;;5.68;;
67930;SDS011;63902;52.000;5.954;2022-12-18T05:12:59;7.40;;;5.00;;
67930;SDS011;63902;52.000;5.954;2022-12-18T05:14:00;6.03;;;4.13;;
67930;SDS011;63902;52.000;5.954;2022-12-18T05:15:03;7.75;;;4.82;;
67930;SDS011;63902;52.000;5.954;2022-12-18T05:16:05;5.32;;;4.32;;
67930;SDS011;63902;52.000;5.954;2022-12-18T05:17:07;6.60;;;4.82;;
67930;SDS011;63902;52.000;5.954;2022-12-18T05:18:08;5.80;;;4.70;;
67930;SDS011;63902;52.000;5.954;2022-12-18T05:19:08;6.25;;;4.38;;
67930;SDS011;63902;52.000;5.954;2022-12-18T05:20:09;5.88;;;3.85;;
67930;SDS011;63902;52.000;5.954;2022-12-18T05:21:10;5.30;;;4.57;;
67930;SDS011;63902;52.000;5.954;2022-12-18T05:22:11;6.18;;;4.65;;
67930;SDS011;63902;52.000;5.954;2022-12-18T05:23:11;6.97;;;4.35;;
67930;SDS011;63902;52.000;5.954;2022-12-18T05:24:12;7.57;;;4.10;;
67930;SDS011;63902;52.000;5.954;2022-12-18T05:25:13;8.00;;;4.72;;
67930;SDS011;63902;52.000;5.954;2022-12-18T05:26:14;7.57;;;4.85;;
67930;SDS011;63902;52.000;5.954;2022-12-18T05:27:16;6.32;;;4.72;;
67930;SDS011;63902;52.000;5.954;2022-12-18T05:28:16;5.22;;;4.10;;
67930;SDS011;63902;52.000;5.954;2022-12-18T05:29:17;8.00;;;4.82;;
67930;SDS011;63902;52.000;5.954;2022-12-18T05:30:17;6.63;;;4.60;;
67930;SDS011;63902;52.000;5.954;2022-12-18T05:31:18;11.20;;;5.15;;
67930;SDS011;63902;52.000;5.954;2022-12-18T05:32:20;6.95;;;4.43;;
67930;SDS011;63902;52.000;5.954;2022-12-18T05:33:20;4.75;;;3.72;;
67930;SDS011;63902;52.000;5.954;2022-12-18T05:34:22;7.78;;;5.25;;
67930;SDS011;63902;52.000;5.954;2022-12-18T05:35:22;8.98;;;4.60;;
67930;SDS011;63902;52.000;5.954;2022-12-18T05:36:23;5.55;;;4.70;;
67930;SDS011;63902;52.000;5.954;2022-12-18T05:37:24;7.60;;;4.97;;
67930;SDS011;63902;52.000;5.954;2022-12-18T05:38:24;7.35;;;4.45;;
67930;SDS011;63902;52.000;5.954;2022-12-18T05:39:26;6.35;;;4.28;;
67930;SDS011;63902;52.000;5.954;2022-12-18T05:40:27;5.10;;;4.25;;
67930;SDS011;63902;52.000;5.954;2022-12-18T05:41:27;5.90;;;4.25;;
67930;SDS011;63902;52.000;5.954;2022-12-18T05:42:28;8.27;;;4.85;;
67930;SDS011;63902;52.000;5.954;2022-12-18T05:43:28;7.72;;;5.03;;
67930;SDS011;63902;52.000;5.954;2022-12-18T05:44:28;5.15;;;3.95;;
67930;SDS011;63902;52.000;5.954;2022-12-18T05:45:29;6.75;;;4.30;;
67930;SDS011;63902;52.000;5.954;2022-12-18T05:46:29;5.78;;;4.75;;
67930;SDS011;63902;52.000;5.954;2022-12-18T05:47:31;5.63;;;4.30;;
67930;SDS011;63902;52.000;5.954;2022-12-18T05:48:32;5.63;;;4.05;;
67930;SDS011;63902;52.000;5.954;2022-12-18T05:49:32;5.15;;;3.80;;
67930;SDS011;63902;52.000;5.954;2022-12-18T05:50:33;5.32;;;4.82;;
67930;SDS011;63902;52.000;5.954;2022-12-18T05:51:34;7.50;;;4.63;;
67930;SDS011;63902;52.000;5.954;2022-12-18T05:52:35;9.27;;;5.20;;
67930;SDS011;63902;52.000;5.954;2022-12-18T05:53:35;6.30;;;4.95;;
67930;SDS011;63902;52.000;5.954;2022-12-18T05:54:36;6.88;;;4.47;;
67930;SDS011;63902;52.000;5.954;2022-12-18T05:55:37;6.45;;;4.80;;
67930;SDS011;63902;52.000;5.954;2022-12-18T05:56:40;5.65;;;3.92;;
67930;SDS011;63902;52.000;5.954;2022-12-18T05:57:40;6.78;;;4.57;;
67930;SDS011;63902;52.000;5.954;2022-12-18T05:58:41;7.82;;;4.95;;
67930;SDS011;63902;52.000;5.954;2022-12-18T05:59:41;6.82;;;5.10;;
67930;SDS011;63902;52.000;5.954;2022-12-18T06:00:43;5.40;;;4.13;;
67930;SDS011;63902;52.000;5.954;2022-12-18T06:01:45;7.47;;;5.05;;
67930;SDS011;63902;52.000;5.954;2022-12-18T06:02:47;8.13;;;5.18;;
67930;SDS011;63902;52.000;5.954;2022-12-18T06:03:48;7.38;;;4.63;;
67930;SDS011;63902;52.000;5.954;2022-12-18T06:04:48;6.53;;;4.82;;
67930;SDS011;63902;52.000;5.954;2022-12-18T06:05:49;6.93;;;4.70;;
67930;SDS011;63902;52.000;5.954;2022-12-18T06:06:50;7.35;;;4.10;;
67930;SDS011;63902;52.000;5.954;2022-12-18T06:07:50;7.72;;;4.43;;
67930;SDS011;63902;52.000;5.954;2022-12-18T06:08:51;5.45;;;4.43;;
67930;SDS011;63902;52.000;5.954;2022-12-18T06:09:51;7.20;;;4.88;;
67930;SDS011;63902;52.000;5.954;2022-12-18T06:10:52;6.18;;;4.28;;
67930;SDS011;63902;52.000;5.954;2022-12-18T06:11:52;5.45;;;4.28;;
67930;SDS011;63902;52.000;5.954;2022-12-18T06:12:53;5.90;;;4.10;;
67930;SDS011;63902;52.000;5.954;2022-12-18T06:13:54;9.50;;;4.45;;